createdAt,value
2018-02-16T00:00:33.754Z,0
2018-02-16T00:01:42.718Z,0
2018-02-16T00:02:51.937Z,0
2018-02-16T00:04:00.926Z,0
2018-02-16T00:05:10.458Z,0
2018-02-16T00:06:19.701Z,0
2018-02-16T00:07:28.471Z,0
2018-02-16T00:08:37.304Z,0
2018-02-16T00:09:46.552Z,0
2018-02-16T00:10:55.303Z,0
2018-02-16T00:12:04.327Z,0
2018-02-16T00:13:13.328Z,0
2018-02-16T00:14:22.317Z,0
2018-02-16T00:15:31.313Z,0
2018-02-16T00:16:40.567Z,0
2018-02-16T00:17:49.861Z,0
2018-02-16T00:18:59.099Z,0
2018-02-16T00:20:07.817Z,0
2018-02-16T00:21:16.784Z,0
2018-02-16T00:22:25.730Z,0
2018-02-16T00:23:34.955Z,0
2018-02-16T00:24:44.174Z,0
2018-02-16T00:25:53.135Z,0
2018-02-16T00:27:01.825Z,0
2018-02-16T00:28:10.807Z,0
2018-02-16T00:29:20.050Z,0
2018-02-16T00:30:28.849Z,0
2018-02-16T00:31:37.544Z,0
2018-02-16T00:32:46.814Z,0
2018-02-16T00:33:56.416Z,0
2018-02-16T00:35:05.247Z,0
2018-02-16T00:36:13.991Z,0
2018-02-16T00:37:22.679Z,0
2018-02-16T00:38:31.905Z,0
2018-02-16T00:39:40.998Z,0
2018-02-16T00:40:50.017Z,0
2018-02-16T00:41:58.979Z,0
2018-02-16T00:43:08.605Z,0
2018-02-16T00:44:17.590Z,0
2018-02-16T00:45:26.614Z,0
2018-02-16T00:46:35.589Z,0
2018-02-16T00:47:44.310Z,0
2018-02-16T00:48:53.602Z,0
2018-02-16T00:50:02.341Z,0
2018-02-16T00:51:11.082Z,0
2018-02-16T00:52:20.303Z,0
2018-02-16T00:53:29.269Z,0
2018-02-16T00:54:38.272Z,0
2018-02-16T00:55:47.116Z,0
2018-02-16T00:56:55.858Z,0
2018-02-16T00:58:05.150Z,0
2018-02-16T00:59:14.149Z,0
2018-02-16T01:00:22.916Z,0
2018-02-16T01:01:32.401Z,0
2018-02-16T01:02:41.474Z,0
2018-02-16T01:03:50.587Z,0
2018-02-16T01:04:59.647Z,0
2018-02-16T01:06:08.687Z,0
2018-02-16T01:07:17.707Z,0
2018-02-16T01:08:26.966Z,0
2018-02-16T01:09:36.238Z,0
2018-02-16T01:10:45.822Z,0
2018-02-16T01:11:54.871Z,0
2018-02-16T01:13:04.422Z,0
2018-02-16T01:14:13.434Z,0
2018-02-16T01:15:22.416Z,0
2018-02-16T01:16:31.120Z,0
2018-02-16T01:17:39.829Z,0
2018-02-16T01:18:49.177Z,0
2018-02-16T01:19:58.176Z,0
2018-02-16T01:21:07.401Z,0
2018-02-16T01:22:17.196Z,0
2018-02-16T01:23:26.172Z,0
2018-02-16T01:24:35.171Z,0
2018-02-16T01:25:43.903Z,0
2018-02-16T01:26:52.618Z,0
2018-02-16T01:28:01.882Z,0
2018-02-16T01:29:11.138Z,0
2018-02-16T01:30:20.104Z,0
2018-02-16T01:31:28.866Z,0
2018-02-16T01:32:37.884Z,0
2018-02-16T01:33:46.928Z,0
2018-02-16T01:34:56.240Z,0
2018-02-16T01:36:04.985Z,0
2018-02-16T01:37:14.231Z,0
2018-02-16T01:38:23.002Z,0
2018-02-16T01:39:31.956Z,0
2018-02-16T01:40:40.955Z,0
2018-02-16T01:41:49.955Z,0
2018-02-16T01:42:58.695Z,0
2018-02-16T01:44:07.684Z,0
2018-02-16T01:45:17.253Z,0
2018-02-16T01:46:26.207Z,0
2018-02-16T01:47:35.192Z,0
2018-02-16T01:48:44.180Z,0
2018-02-16T01:49:53.157Z,0
2018-02-16T01:51:01.868Z,0
2018-02-16T01:52:11.196Z,0
2018-02-16T01:53:19.907Z,0
2018-02-16T01:54:28.615Z,0
2018-02-16T01:55:38.147Z,0
2018-02-16T01:56:46.904Z,0
2018-02-16T01:57:55.871Z,0
2018-02-16T01:59:05.189Z,0
2018-02-16T02:00:14.660Z,0
2018-02-16T02:01:23.640Z,0
2018-02-16T02:02:32.769Z,0
2018-02-16T02:03:42.259Z,0
2018-02-16T02:04:51.229Z,0
2018-02-16T02:05:59.931Z,0
2018-02-16T02:07:08.942Z,0
2018-02-16T02:08:18.457Z,0
2018-02-16T02:09:27.697Z,0
2018-02-16T02:10:36.695Z,0
2018-02-16T02:11:45.684Z,0
2018-02-16T02:12:54.660Z,0
2018-02-16T02:14:03.363Z,0
2018-02-16T02:15:12.120Z,0
2018-02-16T02:16:20.851Z,0
2018-02-16T02:17:30.072Z,0
2018-02-16T02:18:38.809Z,0
2018-02-16T02:19:48.026Z,0
2018-02-16T02:20:57.539Z,0
2018-02-16T02:22:06.310Z,0
2018-02-16T02:23:15.532Z,0
2018-02-16T02:24:24.527Z,0
2018-02-16T02:25:33.734Z,0
2018-02-16T02:26:42.994Z,0
2018-02-16T02:27:52.218Z,0
2018-02-16T02:29:01.483Z,0
2018-02-16T02:30:10.503Z,0
2018-02-16T02:31:19.762Z,0
2018-02-16T02:32:28.734Z,0
2018-02-16T02:33:37.758Z,0
2018-02-16T02:34:46.748Z,0
2018-02-16T02:35:56.084Z,0
2018-02-16T02:37:05.329Z,0
2018-02-16T02:38:14.324Z,0
2018-02-16T02:39:24.106Z,0
2018-02-16T02:40:33.345Z,0
2018-02-16T02:41:42.563Z,0
2018-02-16T02:42:51.548Z,0
2018-02-16T02:44:01.360Z,0
2018-02-16T02:45:10.301Z,0
2018-02-16T02:46:19.518Z,0
2018-02-16T02:47:28.497Z,0
2018-02-16T02:48:37.501Z,0
2018-02-16T02:49:46.745Z,0
2018-02-16T02:50:56.006Z,0
2018-02-16T02:52:05.795Z,0
2018-02-16T02:53:15.007Z,0
2018-02-16T02:54:24.514Z,0
2018-02-16T02:55:33.470Z,0
2018-02-16T02:56:43.520Z,0
2018-02-16T02:57:52.224Z,0
2018-02-16T02:59:01.744Z,0
2018-02-16T03:00:10.709Z,0
2018-02-16T03:01:19.686Z,0
2018-02-16T03:02:28.390Z,0
2018-02-16T03:03:37.946Z,0
2018-02-16T03:04:46.889Z,0
2018-02-16T03:05:56.098Z,0
2018-02-16T03:07:05.044Z,0
2018-02-16T03:08:14.029Z,0
2018-02-16T03:09:23.247Z,0
2018-02-16T03:10:32.201Z,0
2018-02-16T03:11:41.449Z,0
2018-02-16T03:12:50.666Z,0
2018-02-16T03:13:59.617Z,0
2018-02-16T03:15:08.333Z,0
2018-02-16T03:16:17.552Z,0
2018-02-16T03:17:26.537Z,0
2018-02-16T03:18:35.763Z,0
2018-02-16T03:19:44.734Z,0
2018-02-16T03:20:53.704Z,0
2018-02-16T03:22:02.975Z,0
2018-02-16T03:23:11.667Z,0
2018-02-16T03:24:20.883Z,0
2018-02-16T03:25:30.413Z,0
2018-02-16T03:26:39.685Z,0
2018-02-16T03:27:48.909Z,0
2018-02-16T03:28:58.482Z,0
2018-02-16T03:30:07.763Z,0
2018-02-16T03:31:17.006Z,0
2018-02-16T03:32:26.219Z,0
2018-02-16T03:33:34.963Z,0
2018-02-16T03:34:43.947Z,0
2018-02-16T03:35:52.904Z,0
2018-02-16T03:37:01.869Z,0
2018-02-16T03:38:10.830Z,0
2018-02-16T03:39:20.060Z,0
2018-02-16T03:40:29.036Z,0
2018-02-16T03:41:38.025Z,0
2018-02-16T03:42:47.004Z,0
2018-02-16T03:43:55.745Z,0
2018-02-16T03:45:04.773Z,0
2018-02-16T03:46:13.530Z,0
2018-02-16T03:47:22.227Z,0
2018-02-16T03:48:31.193Z,0
2018-02-16T03:49:39.905Z,0
2018-02-16T03:50:48.880Z,0
2018-02-16T03:51:57.868Z,0
2018-02-16T03:53:07.652Z,0
2018-02-16T03:54:16.915Z,0
2018-02-16T03:55:25.620Z,0
2018-02-16T03:56:34.875Z,0
2018-02-16T03:57:43.563Z,0
2018-02-16T03:58:52.787Z,0
2018-02-16T04:00:02.047Z,0
2018-02-16T04:01:11.014Z,0
2018-02-16T04:02:19.982Z,0
2018-02-16T04:03:29.038Z,0
2018-02-16T04:04:38.035Z,0
2018-02-16T04:05:46.767Z,0
2018-02-16T04:06:55.803Z,0
2018-02-16T04:08:05.032Z,0
2018-02-16T04:09:14.019Z,0
2018-02-16T04:10:23.216Z,0
2018-02-16T04:11:32.464Z,0
2018-02-16T04:12:41.429Z,0
2018-02-16T04:13:50.411Z,0
2018-02-16T04:14:59.101Z,0
2018-02-16T04:16:08.857Z,0
2018-02-16T04:17:17.582Z,0
2018-02-16T04:18:26.562Z,0
2018-02-16T04:19:35.527Z,0
2018-02-16T04:20:44.265Z,0
2018-02-16T04:21:53.237Z,0
2018-02-16T04:23:02.227Z,0
2018-02-16T04:24:11.531Z,0
2018-02-16T04:25:20.509Z,0
2018-02-16T04:26:29.745Z,0
2018-02-16T04:27:38.763Z,0
2018-02-16T04:28:47.818Z,0
2018-02-16T04:29:56.802Z,0
2018-02-16T04:31:05.783Z,0
2018-02-16T04:32:15.290Z,0
2018-02-16T04:33:24.285Z,0
2018-02-16T04:34:33.519Z,0
2018-02-16T04:35:42.538Z,0
2018-02-16T04:36:51.550Z,0
2018-02-16T04:38:01.558Z,0
2018-02-16T04:39:10.841Z,0
2018-02-16T04:40:19.905Z,0
2018-02-16T04:41:29.433Z,0
2018-02-16T04:42:38.654Z,0
2018-02-16T04:43:47.649Z,0
2018-02-16T04:44:56.635Z,0
2018-02-16T04:46:05.429Z,0
2018-02-16T04:47:14.379Z,0
2018-02-16T04:48:23.887Z,0
2018-02-16T04:49:32.621Z,0
2018-02-16T04:50:42.124Z,0
2018-02-16T04:51:51.093Z,0
2018-02-16T04:53:00.103Z,0
2018-02-16T04:54:09.633Z,0
2018-02-16T04:55:18.332Z,0
2018-02-16T04:56:27.631Z,0
2018-02-16T04:57:36.578Z,0
2018-02-16T04:58:45.317Z,0
2018-02-16T04:59:54.440Z,0
2018-02-16T05:01:03.983Z,0
2018-02-16T05:02:12.672Z,0
2018-02-16T05:03:21.898Z,0
2018-02-16T05:04:30.855Z,0
2018-02-16T05:05:39.823Z,0
2018-02-16T05:06:49.047Z,0
2018-02-16T05:07:57.732Z,0
2018-02-16T05:09:07.047Z,0
2018-02-16T05:10:16.516Z,0
2018-02-16T05:11:26.247Z,0
2018-02-16T05:12:35.266Z,0
2018-02-16T05:13:44.515Z,0
2018-02-16T05:14:53.470Z,0
2018-02-16T05:16:02.727Z,0
2018-02-16T05:17:12.091Z,0
2018-02-16T05:18:21.320Z,0
2018-02-16T05:19:30.279Z,0
2018-02-16T05:20:39.344Z,0
2018-02-16T05:21:48.304Z,0
2018-02-16T05:22:57.914Z,0
2018-02-16T05:24:07.169Z,0
2018-02-16T05:25:16.405Z,0
2018-02-16T05:26:25.405Z,0
2018-02-16T05:27:34.388Z,0
2018-02-16T05:28:43.328Z,0
2018-02-16T05:29:52.550Z,0
2018-02-16T05:31:01.796Z,0
2018-02-16T05:32:11.040Z,0
2018-02-16T05:33:20.261Z,0
2018-02-16T05:34:29.525Z,0
2018-02-16T05:35:38.210Z,0
2018-02-16T05:36:46.900Z,0
2018-02-16T05:37:56.211Z,0
2018-02-16T05:39:05.157Z,0
2018-02-16T05:40:14.100Z,0
2018-02-16T05:41:23.345Z,0
2018-02-16T05:42:32.852Z,0
2018-02-16T05:43:41.789Z,0
2018-02-16T05:44:51.299Z,0
2018-02-16T05:46:00.522Z,0
2018-02-16T05:47:09.466Z,0
2018-02-16T05:48:18.406Z,0
2018-02-16T05:49:27.121Z,0
2018-02-16T05:50:36.347Z,0
2018-02-16T05:51:45.603Z,0
2018-02-16T05:52:55.403Z,0
2018-02-16T05:54:04.377Z,0
2018-02-16T05:55:13.852Z,0
2018-02-16T05:56:23.323Z,0
2018-02-16T05:57:32.020Z,0
2018-02-16T05:58:40.736Z,0
2018-02-16T05:59:50.010Z,0
2018-02-16T06:00:59.013Z,0
2018-02-16T06:02:08.261Z,0
2018-02-16T06:03:16.942Z,0
2018-02-16T06:04:25.912Z,0
2018-02-16T06:05:34.628Z,0
2018-02-16T06:06:44.127Z,0
2018-02-16T06:07:53.565Z,0
2018-02-16T06:09:02.822Z,0
2018-02-16T06:10:11.597Z,0
2018-02-16T06:11:20.559Z,0
2018-02-16T06:12:29.303Z,0
2018-02-16T06:13:38.254Z,0
2018-02-16T06:14:47.762Z,0
2018-02-16T06:15:56.718Z,0
2018-02-16T06:17:05.690Z,0
2018-02-16T06:18:15.440Z,0
2018-02-16T06:19:24.466Z,0
2018-02-16T06:20:33.935Z,0
2018-02-16T06:21:42.898Z,0
2018-02-16T06:22:51.946Z,0
2018-02-16T06:24:00.953Z,0
2018-02-16T06:25:09.929Z,0
2018-02-16T06:26:19.146Z,0
2018-02-16T06:27:28.358Z,0
2018-02-16T06:28:37.875Z,0
2018-02-16T06:29:47.094Z,0
2018-02-16T06:30:56.643Z,0
2018-02-16T06:32:05.609Z,0
2018-02-16T06:33:14.640Z,0
2018-02-16T06:34:24.116Z,0
2018-02-16T06:35:33.057Z,0
2018-02-16T06:36:41.815Z,0
2018-02-16T06:37:50.818Z,0
2018-02-16T06:39:00.087Z,0
2018-02-16T06:40:09.078Z,0
2018-02-16T06:41:17.767Z,0
2018-02-16T06:42:26.981Z,0
2018-02-16T06:43:36.235Z,0
2018-02-16T06:44:45.980Z,0
2018-02-16T06:45:54.916Z,0
2018-02-16T06:47:03.677Z,0
2018-02-16T06:48:12.417Z,0
2018-02-16T06:49:21.477Z,0
2018-02-16T06:50:30.220Z,0
2018-02-16T06:51:39.183Z,0
2018-02-16T06:52:47.865Z,0
2018-02-16T06:53:56.559Z,0
2018-02-16T06:55:05.777Z,0
2018-02-16T06:56:15.568Z,0
2018-02-16T06:57:24.510Z,0
2018-02-16T06:58:33.753Z,0
2018-02-16T06:59:42.721Z,0
2018-02-16T07:00:51.966Z,0
2018-02-16T07:02:00.915Z,5
2018-02-16T07:03:10.247Z,5
2018-02-16T07:04:18.983Z,5
2018-02-16T07:05:28.246Z,5
2018-02-16T07:06:37.203Z,5
2018-02-16T07:07:46.180Z,5
2018-02-16T07:08:55.432Z,5
2018-02-16T07:10:04.672Z,5
2018-02-16T07:11:13.620Z,5
2018-02-16T07:12:22.632Z,5
2018-02-16T07:13:31.334Z,5
2018-02-16T07:14:40.319Z,5
2018-02-16T07:15:49.310Z,5
2018-02-16T07:16:58.550Z,5
2018-02-16T07:18:07.782Z,5
2018-02-16T07:19:16.741Z,5
2018-02-16T07:20:25.677Z,5
2018-02-16T07:21:34.948Z,5
2018-02-16T07:22:44.752Z,5
2018-02-16T07:23:53.450Z,5
2018-02-16T07:25:02.465Z,10
2018-02-16T07:26:12.014Z,10
2018-02-16T07:27:20.766Z,10
2018-02-16T07:28:29.798Z,10
2018-02-16T07:29:38.765Z,10
2018-02-16T07:30:48.021Z,10
2018-02-16T07:31:57.055Z,10
2018-02-16T07:33:05.783Z,10
2018-02-16T07:34:14.733Z,10
2018-02-16T07:35:23.946Z,10
2018-02-16T07:36:32.906Z,10
2018-02-16T07:37:41.604Z,10
2018-02-16T07:38:50.834Z,10
2018-02-16T07:39:59.511Z,10
2018-02-16T07:41:09.000Z,10
2018-02-16T07:42:17.697Z,10
2018-02-16T07:43:26.648Z,10
2018-02-16T07:44:35.347Z,10
2018-02-16T07:45:44.044Z,10
2018-02-16T07:46:53.523Z,10
2018-02-16T07:48:02.790Z,10
2018-02-16T07:49:11.798Z,10
2018-02-16T07:50:20.738Z,10
2018-02-16T07:51:29.421Z,15
2018-02-16T07:52:38.419Z,15
2018-02-16T07:53:47.384Z,15
2018-02-16T07:54:56.100Z,15
2018-02-16T07:56:05.054Z,15
2018-02-16T07:57:14.084Z,15
2018-02-16T07:58:23.559Z,15
2018-02-16T07:59:33.049Z,15
2018-02-16T08:00:41.756Z,15
2018-02-16T08:01:50.448Z,15
2018-02-16T08:02:59.426Z,15
2018-02-16T08:04:08.691Z,15
2018-02-16T08:05:17.673Z,15
2018-02-16T08:06:26.636Z,15
2018-02-16T08:07:35.622Z,15
2018-02-16T08:08:44.336Z,15
2018-02-16T08:09:53.588Z,15
2018-02-16T08:11:02.634Z,15
2018-02-16T08:12:11.578Z,15
2018-02-16T08:13:20.528Z,15
2018-02-16T08:14:29.711Z,15
2018-02-16T08:15:38.418Z,15
2018-02-16T08:16:47.458Z,15
2018-02-16T08:17:56.413Z,15
2018-02-16T08:19:05.633Z,15
2018-02-16T08:20:14.866Z,15
2018-02-16T08:21:23.848Z,15
2018-02-16T08:22:33.343Z,15
2018-02-16T08:23:42.579Z,20
2018-02-16T08:24:51.569Z,20
2018-02-16T08:26:00.264Z,20
2018-02-16T08:27:09.032Z,20
2018-02-16T08:28:17.714Z,20
2018-02-16T08:29:26.412Z,20
2018-02-16T08:30:35.657Z,25
2018-02-16T08:31:44.345Z,25
2018-02-16T08:32:53.369Z,25
2018-02-16T08:34:02.332Z,30
2018-02-16T08:35:11.580Z,35
2018-02-16T08:36:20.800Z,35
2018-02-16T08:37:30.290Z,35
2018-02-16T08:38:39.529Z,30
2018-02-16T08:39:48.479Z,25
2018-02-16T08:40:57.173Z,25
2018-02-16T08:42:06.101Z,20
2018-02-16T08:43:15.327Z,20
2018-02-16T08:44:24.276Z,20
2018-02-16T08:45:33.505Z,25
2018-02-16T08:46:42.465Z,25
2018-02-16T08:47:51.439Z,30
2018-02-16T08:49:00.694Z,30
2018-02-16T08:50:09.642Z,30
2018-02-16T08:51:18.427Z,30
2018-02-16T08:52:27.385Z,30
2018-02-16T08:53:36.868Z,30
2018-02-16T08:54:46.110Z,35
2018-02-16T08:55:55.047Z,35
2018-02-16T08:57:03.998Z,30
2018-02-16T08:58:12.712Z,30
2018-02-16T08:59:21.975Z,30
2018-02-16T09:00:31.197Z,40
2018-02-16T09:01:40.676Z,35
2018-02-16T09:02:49.365Z,35
2018-02-16T09:03:58.348Z,35
2018-02-16T09:05:07.038Z,30
2018-02-16T09:06:16.515Z,30
2018-02-16T09:07:25.996Z,35
2018-02-16T09:08:35.211Z,35
2018-02-16T09:09:44.410Z,40
2018-02-16T09:10:53.876Z,40
2018-02-16T09:12:02.825Z,40
2018-02-16T09:13:11.804Z,40
2018-02-16T09:14:20.798Z,40
2018-02-16T09:15:29.752Z,40
2018-02-16T09:16:38.694Z,40
2018-02-16T09:17:47.636Z,45
2018-02-16T09:18:56.839Z,40
2018-02-16T09:20:05.551Z,35
2018-02-16T09:21:14.510Z,35
2018-02-16T09:22:23.216Z,35
2018-02-16T09:23:32.700Z,40
2018-02-16T09:24:41.678Z,35
2018-02-16T09:25:50.633Z,35
2018-02-16T09:26:59.603Z,45
2018-02-16T09:28:08.874Z,45
2018-02-16T09:29:17.584Z,35
2018-02-16T09:30:26.304Z,40
2018-02-16T09:31:35.024Z,40
2018-02-16T09:32:43.702Z,40
2018-02-16T09:33:52.670Z,40
2018-02-16T09:35:01.632Z,35
2018-02-16T09:36:10.853Z,35
2018-02-16T09:37:19.823Z,35
2018-02-16T09:38:28.760Z,35
2018-02-16T09:39:37.768Z,40
2018-02-16T09:40:46.998Z,35
2018-02-16T09:41:55.945Z,35
2018-02-16T09:43:04.664Z,40
2018-02-16T09:44:13.880Z,40
2018-02-16T09:45:23.114Z,45
2018-02-16T09:46:32.098Z,45
2018-02-16T09:47:41.042Z,45
2018-02-16T09:48:50.016Z,40
2018-02-16T09:49:59.006Z,35
2018-02-16T09:51:08.018Z,30
2018-02-16T09:52:16.767Z,35
2018-02-16T09:53:25.974Z,30
2018-02-16T09:54:34.917Z,30
2018-02-16T09:55:44.125Z,25
2018-02-16T09:56:53.087Z,25
2018-02-16T09:58:02.035Z,30
2018-02-16T09:59:11.248Z,30
2018-02-16T10:00:20.205Z,25
2018-02-16T10:01:29.447Z,25
2018-02-16T10:02:38.663Z,25
2018-02-16T10:03:47.467Z,30
2018-02-16T10:04:56.431Z,25
2018-02-16T10:06:05.657Z,20
2018-02-16T10:07:14.388Z,20
2018-02-16T10:08:23.360Z,20
2018-02-16T10:09:32.312Z,20
2018-02-16T10:10:41.266Z,20
2018-02-16T10:11:50.254Z,20
2018-02-16T10:12:58.942Z,20
2018-02-16T10:14:08.473Z,20
2018-02-16T10:15:17.434Z,20
2018-02-16T10:16:26.927Z,20
2018-02-16T10:17:35.621Z,20
2018-02-16T10:18:44.577Z,20
2018-02-16T10:19:53.511Z,20
2018-02-16T10:21:02.194Z,20
2018-02-16T10:22:10.880Z,25
2018-02-16T10:23:19.593Z,30
2018-02-16T10:24:28.552Z,30
2018-02-16T10:25:37.516Z,35
2018-02-16T10:26:46.474Z,25
2018-02-16T10:27:55.440Z,20
2018-02-16T10:29:04.680Z,25
2018-02-16T10:30:13.894Z,25
2018-02-16T10:31:22.887Z,25
2018-02-16T10:32:31.642Z,25
2018-02-16T10:33:40.855Z,20
2018-02-16T10:34:49.803Z,25
2018-02-16T10:35:58.802Z,25
2018-02-16T10:37:07.768Z,30
2018-02-16T10:38:16.462Z,30
2018-02-16T10:39:25.406Z,25
2018-02-16T10:40:34.378Z,25
2018-02-16T10:41:43.601Z,25
2018-02-16T10:42:52.612Z,20
2018-02-16T10:44:01.562Z,20
2018-02-16T10:45:10.576Z,25
2018-02-16T10:46:19.269Z,20
2018-02-16T10:47:28.224Z,20
2018-02-16T10:48:37.173Z,20
2018-02-16T10:49:46.775Z,20
2018-02-16T10:50:56.005Z,20
2018-02-16T10:52:05.243Z,20
2018-02-16T10:53:13.936Z,20
2018-02-16T10:54:23.160Z,25
2018-02-16T10:55:32.405Z,30
2018-02-16T10:56:41.354Z,35
2018-02-16T10:57:50.833Z,30
2018-02-16T10:59:00.071Z,25
2018-02-16T11:00:09.051Z,20
2018-02-16T11:01:18.025Z,20
2018-02-16T11:02:26.772Z,25
2018-02-16T11:03:35.738Z,30
2018-02-16T11:04:45.254Z,30
2018-02-16T11:05:53.934Z,25
2018-02-16T11:07:03.438Z,30
2018-02-16T11:08:12.660Z,35
2018-02-16T11:09:21.629Z,30
2018-02-16T11:10:30.601Z,30
2018-02-16T11:11:39.832Z,30
2018-02-16T11:12:48.826Z,35
2018-02-16T11:13:57.494Z,30
2018-02-16T11:15:06.508Z,35
2018-02-16T11:16:15.953Z,40
2018-02-16T11:17:25.173Z,45
2018-02-16T11:18:34.172Z,45
2018-02-16T11:19:43.678Z,35
2018-02-16T11:20:52.952Z,40
2018-02-16T11:22:02.178Z,40
2018-02-16T11:23:11.174Z,40
2018-02-16T11:24:20.178Z,40
2018-02-16T11:25:29.128Z,40
2018-02-16T11:26:38.376Z,40
2018-02-16T11:27:47.330Z,35
2018-02-16T11:28:56.456Z,30
2018-02-16T11:30:05.133Z,25
2018-02-16T11:31:14.361Z,25
2018-02-16T11:32:23.073Z,30
2018-02-16T11:33:32.145Z,30
2018-02-16T11:34:41.607Z,30
2018-02-16T11:35:51.164Z,20
2018-02-16T11:36:59.917Z,20
2018-02-16T11:38:08.916Z,25
2018-02-16T11:39:17.934Z,25
2018-02-16T11:40:27.992Z,20
2018-02-16T11:41:37.326Z,20
2018-02-16T11:42:46.544Z,20
2018-02-16T11:43:55.244Z,20
2018-02-16T11:45:04.200Z,20
2018-02-16T11:46:13.711Z,20
2018-02-16T11:47:22.958Z,20
2018-02-16T11:48:32.117Z,20
2018-02-16T11:49:41.093Z,15
2018-02-16T11:50:50.378Z,15
2018-02-16T11:51:59.393Z,15
2018-02-16T11:53:08.351Z,15
2018-02-16T11:54:17.606Z,15
2018-02-16T11:55:26.589Z,15
2018-02-16T11:56:35.569Z,15
2018-02-16T11:57:44.785Z,15
2018-02-16T11:58:53.573Z,15
2018-02-16T12:00:02.945Z,15
2018-02-16T12:01:11.943Z,15
2018-02-16T12:02:20.653Z,15
2018-02-16T12:03:29.594Z,15
2018-02-16T12:04:38.579Z,15
2018-02-16T12:05:47.569Z,15
2018-02-16T12:06:56.535Z,15
2018-02-16T12:08:05.294Z,15
2018-02-16T12:09:14.296Z,15
2018-02-16T12:10:23.104Z,15
2018-02-16T12:11:31.696Z,15
2018-02-16T12:12:40.919Z,15
2018-02-16T12:13:50.472Z,15
2018-02-16T12:14:59.714Z,15
2018-02-16T12:16:08.935Z,20
2018-02-16T12:17:18.150Z,15
2018-02-16T12:18:27.118Z,15
2018-02-16T12:19:36.483Z,15
2018-02-16T12:20:45.479Z,20
2018-02-16T12:21:55.240Z,20
2018-02-16T12:23:04.233Z,15
2018-02-16T12:24:13.175Z,20
2018-02-16T12:25:22.168Z,20
2018-02-16T12:26:31.416Z,20
2018-02-16T12:27:40.649Z,20
2018-02-16T12:28:50.154Z,20
2018-02-16T12:29:59.626Z,20
2018-02-16T12:31:09.148Z,20
2018-02-16T12:32:17.849Z,20
2018-02-16T12:33:26.813Z,20
2018-02-16T12:34:36.392Z,20
2018-02-16T12:35:45.311Z,20
2018-02-16T12:36:54.313Z,20
2018-02-16T12:38:03.587Z,20
2018-02-16T12:39:12.618Z,20
2018-02-16T12:40:21.600Z,20
2018-02-16T12:41:31.073Z,20
2018-02-16T12:42:40.324Z,20
2018-02-16T12:43:49.073Z,20
2018-02-16T12:44:58.562Z,20
2018-02-16T12:46:07.359Z,25
2018-02-16T12:47:16.346Z,25
2018-02-16T12:48:25.633Z,25
2018-02-16T12:49:34.925Z,25
2018-02-16T12:50:43.909Z,30
2018-02-16T12:51:53.152Z,35
2018-02-16T12:53:02.375Z,35
2018-02-16T12:54:11.434Z,30
2018-02-16T12:55:20.396Z,30
2018-02-16T12:56:29.425Z,35
2018-02-16T12:57:38.666Z,30
2018-02-16T12:58:47.936Z,30
2018-02-16T12:59:57.201Z,25
2018-02-16T13:01:05.903Z,25
2018-02-16T13:02:14.896Z,25
2018-02-16T13:03:23.875Z,20
2018-02-16T13:04:32.568Z,20
2018-02-16T13:05:41.777Z,20
2018-02-16T13:06:50.973Z,20
2018-02-16T13:07:59.959Z,20
2018-02-16T13:09:08.669Z,20
2018-02-16T13:10:17.897Z,20
2018-02-16T13:11:26.876Z,20
2018-02-16T13:12:36.350Z,20
2018-02-16T13:13:45.294Z,20
2018-02-16T13:14:54.002Z,20
2018-02-16T13:16:02.692Z,20
2018-02-16T13:17:12.160Z,15
2018-02-16T13:18:21.642Z,15
2018-02-16T13:19:30.611Z,15
2018-02-16T13:20:39.583Z,15
2018-02-16T13:21:48.540Z,15
2018-02-16T13:22:57.513Z,15
2018-02-16T13:24:06.763Z,15
2018-02-16T13:25:15.740Z,15
2018-02-16T13:26:24.957Z,15
2018-02-16T13:27:33.897Z,15
2018-02-16T13:28:42.913Z,15
2018-02-16T13:29:51.880Z,15
2018-02-16T13:31:01.117Z,15
2018-02-16T13:32:09.836Z,15
2018-02-16T13:33:18.808Z,15
2018-02-16T13:34:28.019Z,15
2018-02-16T13:35:36.717Z,15
2018-02-16T13:36:45.448Z,15
2018-02-16T13:37:55.215Z,15
2018-02-16T13:39:04.003Z,15
2018-02-16T13:40:13.221Z,15
2018-02-16T13:41:21.940Z,15
2018-02-16T13:42:30.881Z,15
2018-02-16T13:43:40.103Z,15
2018-02-16T13:44:48.806Z,15
2018-02-16T13:45:57.797Z,15
2018-02-16T13:47:07.309Z,15
2018-02-16T13:48:16.299Z,15
2018-02-16T13:49:25.083Z,15
2018-02-16T13:50:34.103Z,15
2018-02-16T13:51:42.790Z,15
2018-02-16T13:52:51.814Z,15
2018-02-16T13:54:01.086Z,15
2018-02-16T13:55:10.342Z,15
2018-02-16T13:56:19.595Z,15
2018-02-16T13:57:28.804Z,15
2018-02-16T13:58:37.535Z,15
2018-02-16T13:59:46.887Z,15
2018-02-16T14:00:56.316Z,15
2018-02-16T14:02:05.420Z,15
2018-02-16T14:03:14.843Z,15
2018-02-16T14:04:23.897Z,15
2018-02-16T14:05:32.856Z,15
2018-02-16T14:06:41.528Z,15
2018-02-16T14:07:50.200Z,15
2018-02-16T14:08:59.185Z,15
2018-02-16T14:10:08.166Z,15
2018-02-16T14:11:17.115Z,15
2018-02-16T14:12:26.056Z,15
2018-02-16T14:13:35.054Z,15
2018-02-16T14:14:44.075Z,15
2018-02-16T14:15:53.316Z,15
2018-02-16T14:17:02.284Z,15
2018-02-16T14:18:11.324Z,15
2018-02-16T14:19:20.053Z,15
2018-02-16T14:20:29.288Z,15
2018-02-16T14:21:38.283Z,15
2018-02-16T14:22:47.535Z,15
2018-02-16T14:23:56.495Z,15
2018-02-16T14:25:05.339Z,15
2018-02-16T14:26:14.620Z,15
2018-02-16T14:27:23.631Z,15
2018-02-16T14:28:32.335Z,15
2018-02-16T14:29:41.126Z,15
2018-02-16T14:30:50.391Z,15
2018-02-16T14:31:59.357Z,15
2018-02-16T14:33:08.358Z,15
2018-02-16T14:34:17.405Z,15
2018-02-16T14:35:26.668Z,15
2018-02-16T14:36:35.903Z,15
2018-02-16T14:37:45.252Z,15
2018-02-16T14:38:54.235Z,15
2018-02-16T14:40:03.531Z,15
2018-02-16T14:41:12.487Z,15
2018-02-16T14:42:21.760Z,15
2018-02-16T14:43:30.992Z,15
2018-02-16T14:44:39.967Z,15
2018-02-16T14:45:48.714Z,15
2018-02-16T14:46:58.457Z,15
2018-02-16T14:48:07.154Z,15
2018-02-16T14:49:15.938Z,15
2018-02-16T14:50:24.690Z,15
2018-02-16T14:51:33.659Z,10
2018-02-16T14:52:42.705Z,10
2018-02-16T14:53:52.027Z,10
2018-02-16T14:55:01.533Z,10
2018-02-16T14:56:11.096Z,10
2018-02-16T14:57:20.079Z,10
2018-02-16T14:58:29.029Z,10
2018-02-16T14:59:38.621Z,10
2018-02-16T15:00:47.572Z,10
2018-02-16T15:01:56.536Z,10
2018-02-16T15:03:05.299Z,10
2018-02-16T15:04:14.005Z,10
2018-02-16T15:05:23.021Z,10
2018-02-16T15:06:32.348Z,10
2018-02-16T15:07:41.558Z,10
2018-02-16T15:08:50.771Z,10
2018-02-16T15:09:59.477Z,10
2018-02-16T15:11:09.254Z,10
2018-02-16T15:12:18.476Z,10
2018-02-16T15:13:27.508Z,10
2018-02-16T15:14:37.008Z,10
2018-02-16T15:15:45.982Z,10
2018-02-16T15:16:54.958Z,10
2018-02-16T15:18:03.925Z,10
2018-02-16T15:19:12.658Z,10
2018-02-16T15:20:21.370Z,10
2018-02-16T15:21:30.650Z,10
2018-02-16T15:22:39.419Z,10
2018-02-16T15:23:48.125Z,10
2018-02-16T15:24:57.362Z,10
2018-02-16T15:26:06.076Z,10
2018-02-16T15:27:15.284Z,10
2018-02-16T15:28:25.169Z,10
2018-02-16T15:29:34.199Z,10
2018-02-16T15:30:43.480Z,10
2018-02-16T15:31:52.184Z,10
2018-02-16T15:33:01.153Z,10
2018-02-16T15:34:09.948Z,10
2018-02-16T15:35:19.439Z,10
2018-02-16T15:36:28.408Z,10
2018-02-16T15:37:37.986Z,10
2018-02-16T15:38:46.977Z,10
2018-02-16T15:39:55.672Z,10
2018-02-16T15:41:04.635Z,10
2018-02-16T15:42:13.860Z,10
2018-02-16T15:43:22.821Z,10
2018-02-16T15:44:31.514Z,10
2018-02-16T15:45:40.226Z,10
2018-02-16T15:46:49.196Z,10
2018-02-16T15:47:58.165Z,10
2018-02-16T15:49:07.443Z,10
2018-02-16T15:50:16.702Z,10
2018-02-16T15:51:25.397Z,10
2018-02-16T15:52:34.773Z,5
2018-02-16T15:53:43.457Z,5
2018-02-16T15:54:52.711Z,5
2018-02-16T15:56:01.676Z,5
2018-02-16T15:57:10.887Z,5
2018-02-16T15:58:20.120Z,5
2018-02-16T15:59:29.113Z,5
2018-02-16T16:00:38.089Z,5
2018-02-16T16:01:47.303Z,5
2018-02-16T16:02:56.074Z,5
2018-02-16T16:04:05.554Z,5
2018-02-16T16:05:14.522Z,5
2018-02-16T16:06:23.574Z,5
2018-02-16T16:07:32.800Z,5
2018-02-16T16:08:41.823Z,5
2018-02-16T16:09:50.761Z,5
2018-02-16T16:10:59.532Z,5
2018-02-16T16:12:08.233Z,5
2018-02-16T16:13:17.307Z,5
2018-02-16T16:14:26.268Z,5
2018-02-16T16:15:35.566Z,5
2018-02-16T16:16:44.626Z,5
2018-02-16T16:17:53.969Z,5
2018-02-16T16:19:03.160Z,5
2018-02-16T16:20:12.134Z,5
2018-02-16T16:21:21.215Z,5
2018-02-16T16:22:30.199Z,5
2018-02-16T16:23:39.316Z,5
2018-02-16T16:24:48.014Z,0
2018-02-16T16:25:56.986Z,0
2018-02-16T16:27:05.954Z,0
2018-02-16T16:28:14.671Z,0
2018-02-16T16:29:24.056Z,0
2018-02-16T16:30:33.025Z,0
2018-02-16T16:31:42.228Z,0
2018-02-16T16:32:51.453Z,0
2018-02-16T16:34:00.624Z,0
2018-02-16T16:35:09.697Z,0
2018-02-16T16:36:18.465Z,0
2018-02-16T16:37:27.432Z,0
2018-02-16T16:38:36.710Z,0
2018-02-16T16:39:45.977Z,0
2018-02-16T16:40:55.007Z,0
2018-02-16T16:42:03.991Z,0